RJSNRJSS

Guest
Details From RJSN - NIIGATA
To RJSS - SENDAI
Flight Number -
Tags generated
Created
Modified
Stats Distance 86 nm / 159 km
Max Altitude 9,000 ft / 2,743 m
Waypoints 4
Social Downloads 0
Likes 0
Share VATSIM

Download

Looking for another format? Having issues loading an existing format? Contact us
Advertisement - Login to hide

Notes

Basic altitude profile: - Ascent Rate: 2500ft/min - Ascent Speed: 250kts - Cruise Altitude: 90ft - Cruise Speed: 420kts - Descent Rate: 1500ft/min - Descent Speed: 250kts Options: - Use NATs: yes - Use PACOTS: yes - Use low airways: yes - Use high airways: yes

Route

RJSN FINCH R217 SDE15 RJSS

ID Type Via Altitude Latitude Longitude Leg Dist Tot Dist Heading (true) Name
O RJSN APT - 0 ft / 0 m 37.95480˚ 139.11423˚ - 0 nm - NIIGATA
FINCH FIX - 4,600 ft / 1,402 m 38.09307˚ 140.46427˚ 64 nm 64 nm 82° / 83° -
SDE15 FIX R217 (AWY-LO) 9,000 ft / 2,743 m 38.10472˚ 140.60759˚ 6 nm 71 nm 84° / 84° -
O RJSS APT - 0 ft / 0 m 38.13873˚ 140.91825˚ 14 nm 86 nm 82° / 82° SENDAI

Altitude Profile

Advertisement - Login to hide

RJSN

Details ICAO RJSN (KIJ)
Name NIIGATA
Region Japan
Timezone Asia/Tokyo (UTC+9.0)
Stats Elevation 29 ft / 9 m (AMSL)
Location 37.954803° 139.114228°
Runways 2
Magnetic Variation 8.326° W

METAR

Not found

TAF

TAF RJSN 201105Z 2012/2118 01010KT 9999 FEW030 BECMG 2013/2015 16004KT BECMG 2100/2103 36010KT BECMG 2112/2115 16004KT

Decode

Departure Runways

ID Width Length Bearing (true) Bearing (mag) Surface Threshold Offset Overrun Length
04 150 ft / 46 m 4,321 ft / 1,317 m 31.80° 40.13° Asphalt 0 ft / 0 m 200 ft / 61 m
10 150 ft / 46 m 8,185 ft / 2,495 m 92.69° 101.02° Asphalt 0 ft / 0 m 200 ft / 61 m
22 150 ft / 46 m 4,321 ft / 1,317 m 211.80° 220.13° Asphalt 0 ft / 0 m 200 ft / 61 m
28 150 ft / 46 m 8,185 ft / 2,495 m 272.70° 281.03° Asphalt 0 ft / 0 m 200 ft / 61 m

RJSS

Details ICAO RJSS (SDJ)
Name SENDAI
Region Japan
Timezone Asia/Tokyo (UTC+9.0)
Stats Elevation 15 ft / 5 m (AMSL)
Location 38.138734° 140.918248°
Runways 2
Magnetic Variation 8.104° W

METAR

Not found

TAF

TAF RJSS 201105Z 2012/2118 31010KT 9999 FEW040 BECMG 2021/2023 15010KT BECMG 2109/2112 33004KT

Decode

Destination Runways

ID Width Length Bearing (true) Bearing (mag) Surface Threshold Offset Overrun Length
09 150 ft / 46 m 9,823 ft / 2,994 m 82.52° 90.62° Asphalt 0 ft / 0 m 200 ft / 61 m
12 150 ft / 46 m 3,932 ft / 1,199 m 117.79° 125.89° Asphalt 0 ft / 0 m 0 ft / 0 m
27 150 ft / 46 m 9,823 ft / 2,994 m 262.54° 270.64° Asphalt 0 ft / 0 m 200 ft / 61 m
30 150 ft / 46 m 3,932 ft / 1,199 m 297.80° 305.90° Asphalt 0 ft / 0 m 0 ft / 0 m

Approach Navaids

Runway Type Ident Frequency Range Bearing (true) Bearing (mag) Slope Elevation
27 Localiser ISD 111.70 MHz 18 nm / 33 km 262.52° 270.62° - 15 ft / 5 m (AMSL)
27 Glidescope ISD 111.70 MHz 10 nm / 19 km 262.53° 270.63° 3.00° 12 ft / 4 m (AMSL)
27 DME ISD 111.70 MHz 18 nm / 33 km - - - 29 ft / 9 m (AMSL)